createdAt,value
2023-05-18T00:00:47.755Z,50.866817
2023-05-18T00:01:47.628Z,50.866806
2023-05-18T00:02:48.474Z,50.866840
2023-05-18T00:03:47.761Z,50.866772
2023-05-18T00:04:47.660Z,50.866814
2023-05-18T00:05:47.606Z,50.866783
2023-05-18T00:06:47.627Z,50.866825
2023-05-18T00:07:47.815Z,50.866966
2023-05-18T00:08:47.592Z,50.866951
2023-05-18T00:09:47.581Z,50.866940
2023-05-18T00:10:47.553Z,50.867069
2023-05-18T00:11:47.564Z,50.867035
2023-05-18T00:12:47.570Z,50.866982
2023-05-18T00:13:47.525Z,50.867027
2023-05-18T00:14:48.528Z,50.867168
2023-05-18T00:15:47.657Z,50.868057
2023-05-18T00:16:47.767Z,50.868118
2023-05-18T00:17:47.516Z,50.867485
2023-05-18T00:18:47.624Z,50.867237
2023-05-18T00:19:47.491Z,50.867023
2023-05-18T00:31:50.020Z,50.866982
2023-05-18T00:32:49.984Z,50.866928
2023-05-18T00:33:49.969Z,50.866764
2023-05-18T00:34:49.967Z,50.866871
2023-05-18T00:35:50.902Z,50.866833
2023-05-18T00:36:49.958Z,50.866875
2023-05-18T00:37:49.921Z,50.866821
2023-05-18T00:38:49.913Z,50.866817
2023-05-18T00:39:49.908Z,50.866814
2023-05-18T00:40:49.952Z,50.866848
2023-05-18T00:41:49.900Z,50.866837
2023-05-18T00:42:49.892Z,50.866844
2023-05-18T00:43:49.889Z,50.866791
2023-05-18T00:44:49.857Z,50.866829
2023-05-18T00:45:49.887Z,50.866737
2023-05-18T00:46:49.838Z,50.866844
2023-05-18T00:47:49.867Z,50.866875
2023-05-18T00:48:49.829Z,50.866901
2023-05-18T00:49:49.842Z,50.866943
2023-05-18T00:50:49.866Z,50.866737
2023-05-18T00:51:49.849Z,50.866871
2023-05-18T00:52:49.814Z,50.866928
2023-05-18T00:53:49.829Z,50.866837
2023-05-18T00:54:49.787Z,50.866627
2023-05-18T00:55:49.785Z,50.866734
2023-05-18T00:56:49.810Z,50.866669
2023-05-18T00:57:49.792Z,50.866699
2023-05-18T00:58:49.802Z,50.866737
2023-05-18T00:59:49.741Z,50.866734
2023-05-18T01:00:49.753Z,50.866776
2023-05-18T01:01:49.732Z,50.866699
2023-05-18T01:02:49.874Z,50.866703
2023-05-18T01:03:49.735Z,50.866688
2023-05-18T01:04:49.704Z,50.866707
2023-05-18T01:05:49.693Z,50.866745
2023-05-18T01:06:49.698Z,50.866749
2023-05-18T01:07:50.454Z,50.866749
2023-05-18T01:08:49.696Z,50.866737
2023-05-18T01:09:49.659Z,50.866756
2023-05-18T01:10:49.666Z,50.866711
2023-05-18T01:11:49.636Z,50.866760
2023-05-18T01:12:49.667Z,50.866783
2023-05-18T01:13:49.632Z,50.866760
2023-05-18T01:14:49.716Z,50.866749
2023-05-18T01:15:49.612Z,50.866695
2023-05-18T01:16:50.447Z,50.866673
2023-05-18T01:17:49.664Z,50.866734
2023-05-18T01:18:50.635Z,50.866707
2023-05-18T01:19:49.588Z,50.866642
2023-05-18T01:20:49.622Z,50.866699
2023-05-18T01:21:49.577Z,50.866707
2023-05-18T01:22:49.554Z,50.866692
2023-05-18T01:23:49.591Z,50.866760
2023-05-18T01:24:49.550Z,50.866764
2023-05-18T01:25:49.579Z,50.866760
2023-05-18T01:26:49.525Z,50.866817
2023-05-18T01:27:49.529Z,50.866722
2023-05-18T01:28:49.577Z,50.866688
2023-05-18T01:29:49.495Z,50.866699
2023-05-18T01:30:49.563Z,50.866776
2023-05-18T01:31:49.498Z,50.866776
2023-05-18T01:32:49.605Z,50.866726
2023-05-18T01:33:49.500Z,50.866745
2023-05-18T01:34:49.482Z,50.866871
2023-05-18T01:35:50.341Z,50.866741
2023-05-18T01:36:49.442Z,50.866783
2023-05-18T01:37:49.441Z,50.866810
2023-05-18T01:38:49.433Z,50.866798
2023-05-18T01:39:49.918Z,50.866764
2023-05-18T01:40:49.415Z,50.866825
2023-05-18T01:41:49.420Z,50.866760
2023-05-18T01:42:49.408Z,50.866791
2023-05-18T01:43:49.391Z,50.866753
2023-05-18T01:44:49.452Z,50.866821
2023-05-18T01:45:49.373Z,50.866791
2023-05-18T01:46:49.392Z,50.866680
2023-05-18T01:47:49.428Z,50.866756
2023-05-18T01:48:49.357Z,50.866676
2023-05-18T01:49:49.361Z,50.866634
2023-05-18T01:50:50.328Z,50.866669
2023-05-18T01:51:49.347Z,50.866661
2023-05-18T01:52:49.339Z,50.866703
2023-05-18T01:53:49.317Z,50.866703
2023-05-18T01:54:49.835Z,50.866756
2023-05-18T01:55:49.296Z,50.866753
2023-05-18T01:56:49.303Z,50.866718
2023-05-18T01:57:49.289Z,50.866791
2023-05-18T01:58:49.275Z,50.866703
2023-05-18T01:59:49.277Z,50.866673
2023-05-18T02:00:49.296Z,50.866741
2023-05-18T02:01:49.317Z,50.866749
2023-05-18T02:02:49.298Z,50.866726
2023-05-18T02:03:49.284Z,50.866749
2023-05-18T02:04:49.239Z,50.866810
2023-05-18T02:05:49.241Z,50.866779
2023-05-18T02:06:49.924Z,50.866776
2023-05-18T02:07:49.759Z,50.866745
2023-05-18T02:08:50.225Z,50.866734
2023-05-18T02:09:49.928Z,50.866756
2023-05-18T02:10:49.189Z,50.866749
2023-05-18T02:11:49.179Z,50.866753
2023-05-18T02:12:49.176Z,50.866749
2023-05-18T02:13:49.173Z,50.866734
2023-05-18T02:14:49.157Z,50.866726
2023-05-18T02:15:49.198Z,50.866745
2023-05-18T02:16:49.207Z,50.866726
2023-05-18T02:17:50.989Z,50.866756
2023-05-18T02:18:49.169Z,50.866711
2023-05-18T02:19:49.105Z,50.866718
2023-05-18T02:20:49.109Z,50.866722
2023-05-18T02:21:49.113Z,50.866718
2023-05-18T02:22:49.092Z,50.866745
2023-05-18T02:23:49.105Z,50.866730
2023-05-18T02:24:49.084Z,50.866741
2023-05-18T02:25:49.072Z,50.866734
2023-05-18T02:26:49.060Z,50.866745
2023-05-18T02:27:49.059Z,50.866734
2023-05-18T02:28:49.045Z,50.866734
2023-05-18T02:29:49.037Z,50.866730
2023-05-18T02:30:49.045Z,50.866741
2023-05-18T02:31:49.113Z,50.866764
2023-05-18T02:32:49.084Z,50.866768
2023-05-18T02:33:49.002Z,50.866749
2023-05-18T02:34:50.837Z,50.866734
2023-05-18T02:35:49.011Z,50.866722
2023-05-18T02:36:49.059Z,50.866730
2023-05-18T02:37:49.067Z,50.866737
2023-05-18T02:38:49.095Z,50.866745
2023-05-18T02:39:49.003Z,50.866745
2023-05-18T02:40:48.958Z,50.866726
2023-05-18T02:41:48.946Z,50.866741
2023-05-18T02:42:50.818Z,50.866741
2023-05-18T02:43:48.923Z,50.866737
2023-05-18T02:44:48.923Z,50.866783
2023-05-18T02:45:48.946Z,50.866798
2023-05-18T02:46:48.905Z,50.866741
2023-05-18T02:47:48.941Z,50.866722
2023-05-18T02:48:48.907Z,50.866711
2023-05-18T02:49:48.882Z,50.866764
2023-05-18T02:50:48.874Z,50.866734
2023-05-18T02:51:48.872Z,50.866734
2023-05-18T02:52:48.899Z,50.866734
2023-05-18T02:53:48.852Z,50.866718
2023-05-18T02:54:48.842Z,50.866726
2023-05-18T02:55:48.845Z,50.866688
2023-05-18T02:56:48.822Z,50.866703
2023-05-18T02:57:48.844Z,50.866692
2023-05-18T02:58:48.807Z,50.866676
2023-05-18T02:59:48.795Z,50.866714
2023-05-18T03:00:49.487Z,50.866714
2023-05-18T03:01:48.932Z,50.866673
2023-05-18T03:02:48.915Z,50.866688
2023-05-18T03:03:48.878Z,50.866692
2023-05-18T03:04:49.508Z,50.866714
2023-05-18T03:05:49.786Z,50.866718
2023-05-18T03:06:48.762Z,50.866722
2023-05-18T03:07:48.733Z,50.866714
2023-05-18T03:08:48.739Z,50.866718
2023-05-18T03:09:48.732Z,50.866753
2023-05-18T03:10:48.712Z,50.866749
2023-05-18T03:11:48.714Z,50.866734
2023-05-18T03:12:48.708Z,50.866756
2023-05-18T03:13:48.700Z,50.866741
2023-05-18T03:14:48.684Z,50.866718
2023-05-18T03:15:48.666Z,50.866718
2023-05-18T03:16:48.744Z,50.866745
2023-05-18T03:17:48.710Z,50.866707
2023-05-18T03:18:48.726Z,50.866734
2023-05-18T03:19:48.651Z,50.866768
2023-05-18T03:20:48.676Z,50.866688
2023-05-18T03:21:48.620Z,50.866722
2023-05-18T03:22:48.632Z,50.866734
2023-05-18T03:23:48.633Z,50.866688
2023-05-18T03:24:48.609Z,50.866726
2023-05-18T03:25:48.631Z,50.866749
2023-05-18T03:26:48.613Z,50.866745
2023-05-18T03:27:48.585Z,50.866711
2023-05-18T03:28:48.628Z,50.866745
2023-05-18T03:29:48.564Z,50.866779
2023-05-18T03:30:48.567Z,50.866791
2023-05-18T03:31:48.682Z,50.866791
2023-05-18T03:32:48.556Z,50.866787
2023-05-18T03:33:48.548Z,50.866776
2023-05-18T03:34:48.535Z,50.866776
2023-05-18T03:35:48.781Z,50.866776
2023-05-18T03:36:49.514Z,50.866764
2023-05-18T03:37:48.518Z,50.866730
2023-05-18T03:38:48.509Z,50.866722
2023-05-18T03:39:48.484Z,50.866756
2023-05-18T03:40:48.482Z,50.866760
2023-05-18T03:41:48.483Z,50.866768
2023-05-18T03:42:48.483Z,50.866776
2023-05-18T03:43:48.460Z,50.866859
2023-05-18T03:44:48.454Z,50.866863
2023-05-18T03:45:48.441Z,50.866772
2023-05-18T03:46:50.447Z,50.866753
2023-05-18T03:47:49.524Z,50.866745
2023-05-18T03:48:48.422Z,50.866741
2023-05-18T03:49:48.426Z,50.866756
2023-05-18T03:50:48.399Z,50.866745
2023-05-18T03:51:48.397Z,50.866760
2023-05-18T03:52:49.399Z,50.866737
2023-05-18T03:53:48.370Z,50.866749
2023-05-18T03:54:48.381Z,50.866768
2023-05-18T03:55:48.378Z,50.866745
2023-05-18T03:56:48.370Z,50.866779
2023-05-18T03:57:48.344Z,50.866787
2023-05-18T03:58:48.351Z,50.866798
2023-05-18T03:59:48.317Z,50.866745
2023-05-18T04:00:48.340Z,50.866768
2023-05-18T04:01:48.347Z,50.866741
2023-05-18T04:02:48.343Z,50.866711
2023-05-18T04:03:48.355Z,50.866695
2023-05-18T04:04:48.283Z,50.866699
2023-05-18T04:05:48.287Z,50.866718
2023-05-18T04:06:48.276Z,50.866734
2023-05-18T04:07:48.266Z,50.866745
2023-05-18T04:08:48.281Z,50.866665
2023-05-18T04:09:48.250Z,50.866703
2023-05-18T04:10:48.249Z,50.866692
2023-05-18T04:11:48.229Z,50.866646
2023-05-18T04:12:48.225Z,50.866653
2023-05-18T04:13:48.256Z,50.866627
2023-05-18T04:14:48.197Z,50.866657
2023-05-18T04:15:48.194Z,50.866611
2023-05-18T04:16:48.297Z,50.866581
2023-05-18T04:17:48.212Z,50.866657
2023-05-18T04:18:48.255Z,50.866600
2023-05-18T04:19:48.173Z,50.866646
2023-05-18T04:20:48.154Z,50.866680
2023-05-18T04:21:48.156Z,50.866734
2023-05-18T04:22:48.383Z,50.866714
2023-05-18T04:23:48.153Z,50.866760
2023-05-18T04:24:48.153Z,50.866718
2023-05-18T04:25:48.203Z,50.866749
2023-05-18T04:26:48.112Z,50.866737
2023-05-18T04:27:49.896Z,50.866745
2023-05-18T04:28:48.101Z,50.866703
2023-05-18T04:29:48.087Z,50.866714
2023-05-18T04:30:48.093Z,50.866753
2023-05-18T04:31:48.182Z,50.866711
2023-05-18T04:32:48.152Z,50.866734
2023-05-18T04:33:48.119Z,50.866741
2023-05-18T04:34:48.046Z,50.866745
2023-05-18T04:35:48.867Z,50.866764
2023-05-18T04:36:48.025Z,50.866760
2023-05-18T04:37:48.046Z,50.866753
2023-05-18T04:38:48.033Z,50.866730
2023-05-18T04:39:48.024Z,50.866737
2023-05-18T04:40:48.007Z,50.866776
2023-05-18T04:41:47.988Z,50.866753
2023-05-18T04:42:48.683Z,50.866741
2023-05-18T04:43:47.972Z,50.866749
2023-05-18T04:44:47.958Z,50.866737
2023-05-18T04:45:47.988Z,50.866741
2023-05-18T04:46:47.955Z,50.866760
2023-05-18T04:47:47.963Z,50.866749
2023-05-18T04:48:47.938Z,50.866756
2023-05-18T04:49:47.946Z,50.866753
2023-05-18T04:50:47.934Z,50.866776
2023-05-18T04:51:48.947Z,50.866791
2023-05-18T04:52:47.922Z,50.866779
2023-05-18T04:53:47.916Z,50.866760
2023-05-18T04:54:47.894Z,50.866814
2023-05-18T04:55:47.888Z,50.866787
2023-05-18T04:56:48.330Z,50.866753
2023-05-18T04:57:47.873Z,50.866806
2023-05-18T04:58:48.887Z,50.866772
2023-05-18T04:59:47.973Z,50.866768
2023-05-18T05:00:47.822Z,50.866749
2023-05-18T05:01:47.974Z,50.866749
2023-05-18T05:02:48.417Z,50.866737
2023-05-18T05:03:47.915Z,50.866741
2023-05-18T05:04:47.815Z,50.866787
2023-05-18T05:05:47.822Z,50.866760
2023-05-18T05:06:47.788Z,50.866760
2023-05-18T05:07:47.762Z,50.866810
2023-05-18T05:08:47.799Z,50.866722
2023-05-18T05:09:47.744Z,50.866726
2023-05-18T05:10:47.735Z,50.866749
2023-05-18T05:11:47.745Z,50.866764
2023-05-18T05:12:49.486Z,50.866764
2023-05-18T05:13:48.719Z,50.866764
2023-05-18T05:14:47.741Z,50.866714
2023-05-18T05:15:47.747Z,50.866829
2023-05-18T05:16:47.692Z,50.866776
2023-05-18T05:17:47.750Z,50.866764
2023-05-18T05:18:47.740Z,50.866821
2023-05-18T05:19:47.682Z,50.866817
2023-05-18T05:20:47.670Z,50.866859
2023-05-18T05:21:47.643Z,50.866856
2023-05-18T05:22:47.813Z,50.866879
2023-05-18T05:23:47.641Z,50.866791
2023-05-18T05:24:47.631Z,50.866745
2023-05-18T05:25:47.638Z,50.866795
2023-05-18T05:26:47.624Z,50.866718
2023-05-18T05:27:47.622Z,50.866726
2023-05-18T05:28:47.591Z,50.866734
2023-05-18T05:29:47.591Z,50.866680
2023-05-18T05:30:47.590Z,50.866669
2023-05-18T05:31:47.584Z,50.866714
2023-05-18T05:32:47.586Z,50.866737
2023-05-18T05:33:47.571Z,50.866779
2023-05-18T05:34:47.687Z,50.866776
2023-05-18T05:35:47.569Z,50.866787
2023-05-18T05:36:47.536Z,50.866791
2023-05-18T05:37:47.551Z,50.866795
2023-05-18T05:38:47.524Z,50.866791
2023-05-18T05:39:47.508Z,50.866825
2023-05-18T05:40:47.517Z,50.866783
2023-05-18T05:41:47.502Z,50.866749
2023-05-18T05:42:47.501Z,50.866753
2023-05-18T05:43:47.488Z,50.866714
2023-05-18T05:44:47.486Z,50.866703
2023-05-18T05:45:47.472Z,50.866741
2023-05-18T05:46:47.523Z,50.866707
2023-05-18T05:47:47.534Z,50.866673
2023-05-18T05:48:47.446Z,50.866699
2023-05-18T05:49:48.372Z,50.866741
2023-05-18T05:50:48.435Z,50.866711
2023-05-18T05:51:47.429Z,50.866726
2023-05-18T05:52:47.434Z,50.866722
2023-05-18T05:53:47.980Z,50.866707
2023-05-18T05:54:47.396Z,50.866722
2023-05-18T05:55:47.402Z,50.866741
2023-05-18T05:56:47.395Z,50.866714
2023-05-18T05:57:47.395Z,50.866753
2023-05-18T05:58:47.369Z,50.866734
2023-05-18T05:59:47.359Z,50.866760
2023-05-18T06:00:47.355Z,50.866776
2023-05-18T06:01:47.917Z,50.866783
2023-05-18T06:02:47.339Z,50.866707
2023-05-18T06:03:47.351Z,50.866699
2023-05-18T06:04:47.325Z,50.866707
2023-05-18T06:05:47.338Z,50.866737
2023-05-18T06:06:47.299Z,50.866730
2023-05-18T06:07:47.292Z,50.866734
2023-05-18T06:08:47.279Z,50.866730
2023-05-18T06:09:47.269Z,50.866730
2023-05-18T06:10:47.282Z,50.866737
2023-05-18T06:11:47.245Z,50.866730
2023-05-18T06:12:47.258Z,50.866737
2023-05-18T06:13:47.265Z,50.866756
2023-05-18T06:14:47.254Z,50.866829
2023-05-18T06:15:47.223Z,50.866859
2023-05-18T06:16:47.263Z,50.866817
2023-05-18T06:17:47.314Z,50.866920
2023-05-18T06:18:47.355Z,50.866928
2023-05-18T06:19:47.230Z,50.866951
2023-05-18T06:20:47.264Z,50.866928
2023-05-18T06:21:47.183Z,50.866882
2023-05-18T06:22:47.182Z,50.866856
2023-05-18T06:23:47.173Z,50.866817
2023-05-18T06:24:47.161Z,50.866905
2023-05-18T06:25:47.187Z,50.866886
2023-05-18T06:26:47.144Z,50.866974
2023-05-18T06:27:47.140Z,50.866997
2023-05-18T06:28:47.128Z,50.866951
2023-05-18T06:29:47.110Z,50.867115
2023-05-18T06:30:47.118Z,50.866978
2023-05-18T06:31:47.130Z,50.866905
2023-05-18T06:32:47.181Z,50.867050
2023-05-18T06:33:47.113Z,50.867004
2023-05-18T06:34:47.119Z,50.867035
2023-05-18T06:35:47.080Z,50.866985
2023-05-18T06:36:47.076Z,50.866982
2023-05-18T06:37:47.208Z,50.866959
2023-05-18T06:38:47.923Z,50.866928
2023-05-18T06:39:47.056Z,50.866859
2023-05-18T06:40:47.029Z,50.866879
2023-05-18T06:41:47.032Z,50.866879
2023-05-18T06:42:47.037Z,50.866844
2023-05-18T06:43:47.021Z,50.866848
2023-05-18T06:44:47.004Z,50.866856
2023-05-18T06:45:47.028Z,50.866917
2023-05-18T06:46:47.020Z,50.866871
2023-05-18T06:47:47.006Z,50.866871
2023-05-18T06:48:47.033Z,50.866837
2023-05-18T06:49:46.969Z,50.866825
2023-05-18T06:50:46.956Z,50.866814
2023-05-18T06:51:46.952Z,50.866829
2023-05-18T06:52:46.944Z,50.866814
2023-05-18T06:53:46.953Z,50.866840
2023-05-18T06:54:46.950Z,50.866817
2023-05-18T06:55:46.923Z,50.866817
2023-05-18T06:56:46.896Z,50.866814
2023-05-18T06:57:46.910Z,50.866817
2023-05-18T06:58:46.898Z,50.866852
2023-05-18T06:59:46.895Z,50.866825
2023-05-18T07:00:46.882Z,50.866795
2023-05-18T07:01:46.890Z,50.866772
2023-05-18T07:02:46.850Z,50.866745
2023-05-18T07:03:46.914Z,50.866749
2023-05-18T07:04:46.884Z,50.866783
2023-05-18T07:05:46.839Z,50.866779
2023-05-18T07:06:47.403Z,50.866783
2023-05-18T07:07:48.433Z,50.866798
2023-05-18T07:08:46.802Z,50.866795
2023-05-18T07:09:46.798Z,50.866802
2023-05-18T07:10:46.781Z,50.866795
2023-05-18T07:11:46.785Z,50.866791
2023-05-18T07:12:46.778Z,50.866760
2023-05-18T07:13:46.761Z,50.866749
2023-05-18T07:14:46.772Z,50.866768
2023-05-18T07:15:46.743Z,50.866791
2023-05-18T07:16:46.774Z,50.866795
2023-05-18T07:17:46.744Z,50.866852
2023-05-18T07:18:46.743Z,50.866867
2023-05-18T07:19:46.713Z,50.866859
2023-05-18T07:20:48.504Z,50.866852
2023-05-18T07:21:46.753Z,50.866821
2023-05-18T07:22:46.699Z,50.866802
2023-05-18T07:23:46.689Z,50.866795
2023-05-18T07:24:46.689Z,50.866787
2023-05-18T07:25:46.666Z,50.866787
2023-05-18T07:26:46.661Z,50.866791
2023-05-18T07:27:46.667Z,50.866829
2023-05-18T07:28:46.671Z,50.866821
2023-05-18T07:29:46.648Z,50.866821
2023-05-18T07:30:46.657Z,50.866703
2023-05-18T07:31:46.657Z,50.866676
2023-05-18T07:32:46.650Z,50.866745
2023-05-18T07:33:46.627Z,50.866741
2023-05-18T07:34:46.601Z,50.866776
2023-05-18T07:35:46.625Z,50.866730
2023-05-18T07:36:46.601Z,50.866791
2023-05-18T07:37:47.538Z,50.866779
2023-05-18T07:38:49.506Z,50.866730
2023-05-18T07:39:47.506Z,50.866669
2023-05-18T07:40:46.601Z,50.866699
2023-05-18T07:41:46.558Z,50.866718
2023-05-18T07:42:46.542Z,50.866768
2023-05-18T07:43:46.568Z,50.866737
2023-05-18T07:44:46.540Z,50.866829
2023-05-18T07:45:46.525Z,50.866810
2023-05-18T07:46:46.632Z,50.866768
2023-05-18T07:47:46.583Z,50.866776
2023-05-18T07:48:46.493Z,50.866768
2023-05-18T07:49:47.526Z,50.866730
2023-05-18T07:50:46.458Z,50.866707
2023-05-18T07:51:47.486Z,50.866737
2023-05-18T07:52:46.559Z,50.866821
2023-05-18T07:53:46.477Z,50.866856
2023-05-18T07:54:46.459Z,50.866848
2023-05-18T07:55:46.441Z,50.866825
2023-05-18T07:56:46.435Z,50.866821
2023-05-18T07:57:46.436Z,50.866791
2023-05-18T07:58:46.440Z,50.866772
2023-05-18T07:59:46.435Z,50.866890
2023-05-18T08:00:46.430Z,50.866859
2023-05-18T08:01:46.437Z,50.866795
2023-05-18T08:02:46.645Z,50.866730
2023-05-18T08:03:46.475Z,50.866741
2023-05-18T08:04:46.382Z,50.866753
2023-05-18T08:05:46.398Z,50.866779
2023-05-18T08:06:46.350Z,50.866795
2023-05-18T08:07:46.355Z,50.866810
2023-05-18T08:08:46.450Z,50.866791
2023-05-18T08:09:46.343Z,50.866802
2023-05-18T08:10:46.337Z,50.866737
2023-05-18T08:11:47.031Z,50.866737
2023-05-18T08:12:46.321Z,50.866779
2023-05-18T08:13:46.299Z,50.866871
2023-05-18T08:14:46.294Z,50.866791
2023-05-18T08:15:49.013Z,50.866844
2023-05-18T08:16:47.353Z,50.866779
2023-05-18T08:17:46.321Z,50.866791
2023-05-18T08:18:46.319Z,50.866791
2023-05-18T08:19:46.262Z,50.866837
2023-05-18T08:20:46.286Z,50.866840
2023-05-18T08:21:46.245Z,50.866787
2023-05-18T08:22:46.276Z,50.866741
2023-05-18T08:23:46.214Z,50.866753
2023-05-18T08:24:46.228Z,50.866783
2023-05-18T08:25:46.212Z,50.866776
2023-05-18T08:26:46.200Z,50.866821
2023-05-18T08:27:46.211Z,50.866833
2023-05-18T08:28:46.217Z,50.866749
2023-05-18T08:29:46.195Z,50.866707
2023-05-18T08:30:46.180Z,50.866718
2023-05-18T08:31:47.666Z,50.866760
2023-05-18T08:32:46.202Z,50.866730
2023-05-18T08:33:46.187Z,50.866711
2023-05-18T08:34:46.180Z,50.866718
2023-05-18T08:35:46.144Z,50.866737
2023-05-18T08:36:46.207Z,50.866680
2023-05-18T08:37:46.129Z,50.866756
2023-05-18T08:38:46.095Z,50.866741
2023-05-18T08:39:46.182Z,50.866707
2023-05-18T08:40:46.126Z,50.866707
2023-05-18T08:41:46.134Z,50.866734
2023-05-18T08:42:49.853Z,50.866741
2023-05-18T08:43:47.145Z,50.866707
2023-05-18T08:44:46.049Z,50.866737
2023-05-18T08:45:46.056Z,50.866745
2023-05-18T08:46:46.050Z,50.866718
2023-05-18T08:47:46.116Z,50.866699
2023-05-18T08:48:47.124Z,50.866726
2023-05-18T08:49:46.025Z,50.866795
2023-05-18T08:50:46.018Z,50.866688
2023-05-18T08:51:46.003Z,50.866550
2023-05-18T08:52:46.006Z,50.866688
2023-05-18T08:53:45.984Z,50.866741
2023-05-18T08:54:45.974Z,50.866657
2023-05-18T08:55:46.030Z,50.866692
2023-05-18T08:56:45.979Z,50.866802
2023-05-18T08:57:45.991Z,50.866779
2023-05-18T08:58:45.971Z,50.866676
2023-05-18T08:59:45.932Z,50.866631
2023-05-18T09:00:45.922Z,50.866657
2023-05-18T09:01:45.967Z,50.866653
2023-05-18T09:02:45.943Z,50.866756
2023-05-18T09:03:45.893Z,50.866707
2023-05-18T09:04:45.927Z,50.866646
2023-05-18T09:05:45.893Z,50.866631
2023-05-18T09:06:45.889Z,50.866596
2023-05-18T09:07:46.933Z,50.866611
2023-05-18T09:08:46.872Z,50.866638
2023-05-18T09:09:45.862Z,50.866661
2023-05-18T09:10:45.865Z,50.866688
2023-05-18T09:11:45.856Z,50.866714
2023-05-18T09:12:46.233Z,50.866711
2023-05-18T09:13:45.827Z,50.866726
2023-05-18T09:14:45.805Z,50.866692
2023-05-18T09:15:45.849Z,50.866722
2023-05-18T09:16:47.543Z,50.866737
2023-05-18T09:17:45.858Z,50.866703
2023-05-18T09:18:45.799Z,50.866642
2023-05-18T09:19:46.466Z,50.866730
2023-05-18T09:20:45.766Z,50.866783
2023-05-18T09:21:45.760Z,50.866707
2023-05-18T09:22:45.809Z,50.866734
2023-05-18T09:23:45.776Z,50.866791
2023-05-18T09:24:45.762Z,50.866669
2023-05-18T09:25:45.727Z,50.866760
2023-05-18T09:26:45.738Z,50.866680
2023-05-18T09:27:45.718Z,50.866741
2023-05-18T09:28:45.712Z,50.866707
2023-05-18T09:29:45.707Z,50.866711
2023-05-18T09:30:45.727Z,50.866844
2023-05-18T09:31:45.738Z,50.866581
2023-05-18T09:32:45.745Z,50.866787
2023-05-18T09:33:45.778Z,50.866707
2023-05-18T09:34:45.739Z,50.866753
2023-05-18T09:35:45.639Z,50.866817
2023-05-18T09:36:45.674Z,50.866730
2023-05-18T09:37:46.514Z,50.866753
2023-05-18T09:38:45.667Z,50.866711
2023-05-18T09:39:45.609Z,50.866741
2023-05-18T09:40:45.606Z,50.866821
2023-05-18T09:41:45.594Z,50.866684
2023-05-18T09:42:45.583Z,50.866882
2023-05-18T09:43:45.595Z,50.866840
2023-05-18T09:44:45.583Z,50.866962
2023-05-18T09:45:45.584Z,50.867073
2023-05-18T09:46:45.637Z,50.866947
2023-05-18T09:47:45.608Z,50.866886
2023-05-18T09:48:45.549Z,50.866947
2023-05-18T09:49:45.519Z,50.867012
2023-05-18T09:50:45.529Z,50.866917
2023-05-18T09:51:45.517Z,50.866932
2023-05-18T09:52:45.522Z,50.866852
2023-05-18T09:53:45.492Z,50.866909
2023-05-18T09:54:45.532Z,50.867008
2023-05-18T09:55:45.493Z,50.867096
2023-05-18T09:56:52.314Z,50.866890
2023-05-18T09:57:46.485Z,50.866898
2023-05-18T09:58:45.465Z,50.866920
2023-05-18T09:59:45.462Z,50.867081
2023-05-18T10:00:45.529Z,50.867138
2023-05-18T10:01:45.447Z,50.866966
2023-05-18T10:02:45.496Z,50.867054
2023-05-18T10:03:45.432Z,50.866791
2023-05-18T10:04:45.455Z,50.866737
2023-05-18T10:05:45.416Z,50.866756
2023-05-18T10:06:45.968Z,50.866844
2023-05-18T10:07:45.413Z,50.866848
2023-05-18T10:08:45.393Z,50.866718
2023-05-18T10:09:45.361Z,50.866837
2023-05-18T10:10:45.355Z,50.866844
2023-05-18T10:11:45.360Z,50.866894
2023-05-18T10:12:45.384Z,50.866821
2023-05-18T10:13:45.359Z,50.866844
2023-05-18T10:14:45.359Z,50.866837
2023-05-18T10:15:45.333Z,50.867268
2023-05-18T10:16:45.483Z,50.867142
2023-05-18T10:17:45.403Z,50.866901
2023-05-18T10:18:45.335Z,50.866650
2023-05-18T10:19:45.308Z,50.866776
2023-05-18T10:20:46.355Z,50.866413
2023-05-18T10:21:45.301Z,50.866447
2023-05-18T10:22:45.275Z,50.866528
2023-05-18T10:23:45.262Z,50.866524
2023-05-18T10:24:45.235Z,50.866539
2023-05-18T10:25:45.245Z,50.866398
2023-05-18T10:26:45.260Z,50.866596
2023-05-18T10:27:45.241Z,50.866741
2023-05-18T10:28:45.236Z,50.866806
2023-05-18T10:29:45.215Z,50.866432
2023-05-18T10:30:45.237Z,50.866402
2023-05-18T10:31:45.199Z,50.866642
2023-05-18T10:32:45.189Z,50.866802
2023-05-18T10:33:45.181Z,50.866859
2023-05-18T10:34:45.238Z,50.866749
2023-05-18T10:35:45.194Z,50.866566
2023-05-18T10:36:45.159Z,50.866558
2023-05-18T10:37:45.138Z,50.866615
2023-05-18T10:38:45.134Z,50.866634
2023-05-18T10:39:45.131Z,50.866638
2023-05-18T10:40:45.125Z,50.866631
2023-05-18T10:41:45.137Z,50.866608
2023-05-18T10:42:45.153Z,50.866634
2023-05-18T10:43:45.104Z,50.866589
2023-05-18T10:44:45.092Z,50.866665
2023-05-18T10:45:45.067Z,50.866699
2023-05-18T10:46:45.122Z,50.866554
2023-05-18T10:47:45.266Z,50.866497
2023-05-18T10:48:46.826Z,50.866608
2023-05-18T10:49:46.042Z,50.866665
2023-05-18T10:50:45.051Z,50.866539
2023-05-18T10:51:45.607Z,50.866734
2023-05-18T10:52:45.025Z,50.866714
2023-05-18T10:53:46.599Z,50.866707
2023-05-18T10:54:44.999Z,50.866539
2023-05-18T10:55:45.117Z,50.866482
2023-05-18T10:56:46.999Z,50.866535
2023-05-18T10:57:45.018Z,50.866611
2023-05-18T10:58:44.975Z,50.866638
2023-05-18T10:59:47.449Z,50.866661
2023-05-18T11:00:44.954Z,50.866714
2023-05-18T11:01:45.014Z,50.866699
2023-05-18T11:02:45.177Z,50.866734
2023-05-18T11:03:44.927Z,50.866745
2023-05-18T11:04:44.961Z,50.866707
2023-05-18T11:05:44.917Z,50.866684
2023-05-18T11:06:44.906Z,50.866707
2023-05-18T11:07:44.932Z,50.866718
2023-05-18T11:08:44.954Z,50.866653
2023-05-18T11:09:44.896Z,50.866669
2023-05-18T11:10:44.899Z,50.866676
2023-05-18T11:11:44.870Z,50.866737
2023-05-18T11:12:44.857Z,50.866741
2023-05-18T11:13:44.846Z,50.866722
2023-05-18T11:14:44.856Z,50.866737
2023-05-18T11:15:44.907Z,50.866737
2023-05-18T11:16:44.845Z,50.866753
2023-05-18T11:17:44.870Z,50.866745
2023-05-18T11:18:44.843Z,50.866737
2023-05-18T11:19:45.815Z,50.866745
2023-05-18T11:20:44.937Z,50.866764
2023-05-18T11:21:44.786Z,50.866772
2023-05-18T11:22:44.789Z,50.866722
2023-05-18T11:23:44.800Z,50.866684
2023-05-18T11:24:44.785Z,50.866699
2023-05-18T11:25:44.755Z,50.866711
2023-05-18T11:26:44.794Z,50.866673
2023-05-18T11:27:44.744Z,50.866642
2023-05-18T11:28:44.726Z,50.866711
2023-05-18T11:29:44.729Z,50.866669
2023-05-18T11:30:44.709Z,50.866730
2023-05-18T11:31:44.774Z,50.866764
2023-05-18T11:32:44.754Z,50.866795
2023-05-18T11:33:44.752Z,50.866814
2023-05-18T11:34:44.686Z,50.866795
2023-05-18T11:35:44.692Z,50.866779